createdAt,value
2023-02-16T00:02:17.524Z,101877.81
2023-02-16T00:09:19.285Z,101869.63
2023-02-16T00:16:22.142Z,101875.81
2023-02-16T00:23:23.708Z,101875.97
2023-02-16T00:30:25.318Z,101877.19
2023-02-16T00:37:27.500Z,101874.16
2023-02-16T00:44:44.956Z,101871.53
2023-02-16T00:51:46.679Z,101874.59
2023-02-16T00:58:50.259Z,101863.50
2023-02-16T01:06:11.810Z,101871.66
2023-02-16T01:13:13.392Z,101868.63
2023-02-16T01:20:22.566Z,101874.69
2023-02-16T01:27:24.077Z,101869.63
2023-02-16T01:34:25.697Z,101856.38
2023-02-16T01:41:51.788Z,101858.19
2023-02-16T01:48:53.354Z,101853.97
2023-02-16T01:56:00.564Z,101846.44
2023-02-16T02:03:20.522Z,101844.22
2023-02-16T02:10:24.419Z,101850.41
2023-02-16T02:17:26.054Z,101852.00
2023-02-16T02:25:04.101Z,101828.00
2023-02-16T02:32:20.688Z,101851.19
2023-02-16T02:40:00.649Z,101836.41
2023-02-16T02:47:02.194Z,101833.56
2023-02-16T02:54:40.563Z,101826.66
2023-02-16T03:01:48.899Z,101818.97
2023-02-16T03:08:55.312Z,101816.25
2023-02-16T03:15:57.006Z,101818.94
2023-02-16T03:23:17.577Z,101817.25
2023-02-16T03:30:19.266Z,101805.81
2023-02-16T03:37:20.965Z,101818.38
2023-02-16T03:44:22.640Z,101811.28
2023-02-16T03:51:24.206Z,101823.75
2023-02-16T03:58:25.822Z,101807.69
2023-02-16T04:05:27.445Z,101813.03
2023-02-16T04:12:37.992Z,101818.56
2023-02-16T04:19:39.567Z,101805.22
2023-02-16T04:26:41.092Z,101822.47
2023-02-16T04:33:42.627Z,101815.06
2023-02-16T04:40:44.148Z,101817.13
2023-02-16T04:47:45.699Z,101816.06
2023-02-16T04:54:47.306Z,101806.41
2023-02-16T05:01:49.313Z,101799.31
2023-02-16T05:08:50.871Z,101802.38
2023-02-16T05:15:52.432Z,101805.97
2023-02-16T05:22:53.986Z,101810.84
2023-02-16T05:29:55.888Z,101829.09
2023-02-16T05:36:57.495Z,101822.81
2023-02-16T05:44:00.246Z,101812.41
2023-02-16T05:51:02.271Z,101816.19
2023-02-16T05:58:04.118Z,101815.97
2023-02-16T06:05:05.989Z,101825.28
2023-02-16T06:12:07.783Z,101834.34
2023-02-16T06:19:09.505Z,101822.94
2023-02-16T06:26:11.023Z,101843.41
2023-02-16T06:33:12.574Z,101847.56
2023-02-16T06:40:14.864Z,101848.34
2023-02-16T06:47:16.385Z,101848.09
2023-02-16T06:54:18.070Z,101850.66
2023-02-16T07:01:23.002Z,101857.53
2023-02-16T07:08:24.778Z,101847.22
2023-02-16T07:15:26.382Z,101855.66
2023-02-16T07:22:29.691Z,101844.91
2023-02-16T07:29:31.253Z,101837.13
2023-02-16T07:36:32.858Z,101840.19
2023-02-16T07:43:37.588Z,101826.09
2023-02-16T07:50:39.158Z,101820.50
2023-02-16T07:57:40.690Z,101831.53
2023-02-16T08:04:42.291Z,101839.66
2023-02-16T08:11:43.960Z,101832.03
2023-02-16T08:18:45.492Z,101833.66
2023-02-16T08:25:47.019Z,101841.47
2023-02-16T08:32:50.800Z,101844.19
2023-02-16T08:39:53.735Z,101841.16
2023-02-16T08:46:56.137Z,101835.97
2023-02-16T08:53:58.754Z,101824.75
2023-02-16T09:01:04.205Z,101812.50
2023-02-16T09:08:05.799Z,101808.75
2023-02-16T09:15:08.489Z,101808.84
2023-02-16T09:22:10.641Z,101800.63
2023-02-16T09:29:12.412Z,101796.88
2023-02-16T09:36:14.058Z,101800.53
2023-02-16T09:43:30.841Z,101789.97
2023-02-16T09:50:52.446Z,101794.66
2023-02-16T09:58:08.049Z,101773.50
2023-02-16T10:05:13.202Z,101772.28
2023-02-16T10:12:21.070Z,101776.50
2023-02-16T10:19:26.240Z,101782.56
2023-02-16T10:26:38.599Z,101791.56
2023-02-16T10:33:48.821Z,101784.53
2023-02-16T10:40:59.925Z,101780.88
2023-02-16T10:48:01.834Z,101763.00
2023-02-16T10:55:03.441Z,101757.44
2023-02-16T11:02:27.087Z,101753.03
2023-02-16T11:09:28.796Z,101743.00
2023-02-16T11:16:30.409Z,101744.19
2023-02-16T11:23:36.212Z,101735.28
2023-02-16T11:30:41.323Z,101736.78
2023-02-16T11:37:42.905Z,101728.28
2023-02-16T11:44:46.900Z,101717.38
2023-02-16T11:51:48.436Z,101711.00
2023-02-16T11:59:07.888Z,101706.38
2023-02-16T12:06:34.700Z,101703.94
2023-02-16T12:13:51.038Z,101708.81
2023-02-16T12:21:11.849Z,101703.72
2023-02-16T12:28:28.352Z,101696.28
2023-02-16T12:35:38.843Z,101691.59
2023-02-16T12:42:52.624Z,101681.69
2023-02-16T12:50:02.067Z,101686.00
2023-02-16T12:57:07.076Z,101678.84
2023-02-16T13:04:33.747Z,101679.66
2023-02-16T13:11:40.838Z,101666.56
2023-02-16T13:18:42.687Z,101657.69
2023-02-16T13:26:21.821Z,101661.50
2023-02-16T13:33:27.520Z,101663.44
2023-02-16T13:40:53.749Z,101640.28
2023-02-16T13:47:55.538Z,101642.91
2023-02-16T13:54:58.426Z,101649.22
2023-02-16T14:01:59.971Z,101652.53
2023-02-16T14:09:10.961Z,101643.09
2023-02-16T14:16:33.073Z,101640.66
2023-02-16T14:23:34.693Z,101642.25
2023-02-16T14:30:39.258Z,101638.34
2023-02-16T14:38:03.563Z,101634.19
2023-02-16T14:45:22.613Z,101640.09
2023-02-16T14:52:42.816Z,101623.81
2023-02-16T14:59:54.000Z,101636.75
2023-02-16T15:06:55.653Z,101632.47
2023-02-16T15:14:05.367Z,101634.91
2023-02-16T15:21:07.145Z,101628.59
2023-02-16T15:28:20.363Z,101628.63
2023-02-16T15:35:29.773Z,101629.31
2023-02-16T15:42:31.761Z,101625.00
2023-02-16T15:49:34.750Z,101626.25
2023-02-16T15:56:40.379Z,101616.28
2023-02-16T16:03:46.407Z,101620.75
2023-02-16T16:10:47.930Z,101599.84
2023-02-16T16:17:50.668Z,101587.75
2023-02-16T16:24:52.192Z,101591.03
2023-02-16T16:31:53.984Z,101587.53
2023-02-16T16:39:09.672Z,101586.50
2023-02-16T16:46:23.768Z,101578.81
2023-02-16T16:53:42.238Z,101584.34
2023-02-16T17:00:43.866Z,101570.22
2023-02-16T17:07:48.983Z,101570.84
2023-02-16T17:14:50.757Z,101576.47
2023-02-16T17:21:52.289Z,101567.19
2023-02-16T17:28:53.893Z,101580.22
2023-02-16T17:35:55.446Z,101573.53
2023-02-16T17:42:57.004Z,101577.53
2023-02-16T17:49:58.582Z,101585.56
2023-02-16T17:57:00.158Z,101587.72
2023-02-16T18:04:03.191Z,101593.00
2023-02-16T18:11:05.066Z,101595.31
2023-02-16T18:18:06.604Z,101596.91
2023-02-16T18:25:08.277Z,101585.00
2023-02-16T18:32:10.103Z,101583.25
2023-02-16T18:39:11.679Z,101588.22
2023-02-16T18:46:13.218Z,101585.53
2023-02-16T18:53:14.785Z,101584.41
2023-02-16T19:00:17.042Z,101580.22
2023-02-16T19:07:19.139Z,101578.13
2023-02-16T19:14:20.896Z,101576.31
2023-02-16T19:21:22.458Z,101556.31
2023-02-16T19:28:24.069Z,101576.47
2023-02-16T19:35:25.612Z,101579.84
2023-02-16T19:42:27.164Z,101580.31
2023-02-16T19:49:29.107Z,101590.84
2023-02-16T19:56:30.696Z,101578.78
2023-02-16T20:03:32.273Z,101565.97
2023-02-16T20:10:34.459Z,101574.41
2023-02-16T20:17:36.140Z,101571.25
2023-02-16T20:24:38.049Z,101575.59
2023-02-16T20:31:42.410Z,101566.53
2023-02-16T20:38:44.143Z,101559.72
2023-02-16T20:45:45.715Z,101551.41
2023-02-16T20:52:47.282Z,101561.09
2023-02-16T20:59:48.904Z,101567.22
2023-02-16T21:06:50.469Z,101559.31
2023-02-16T21:13:51.995Z,101547.22
2023-02-16T21:20:53.537Z,101532.50
2023-02-16T21:27:55.129Z,101525.50
2023-02-16T21:34:56.670Z,101527.38
2023-02-16T21:41:58.223Z,101522.88
2023-02-16T21:48:59.896Z,101514.09
2023-02-16T21:56:17.990Z,101504.00
2023-02-16T22:03:20.480Z,101483.22
2023-02-16T22:10:22.010Z,101492.94
2023-02-16T22:17:23.524Z,101481.25
2023-02-16T22:24:25.067Z,101478.56
2023-02-16T22:31:27.362Z,101477.78
2023-02-16T22:38:29.134Z,101473.69
2023-02-16T22:45:30.815Z,101476.28
2023-02-16T22:52:32.505Z,101472.09
2023-02-16T22:59:34.097Z,101473.41
2023-02-16T23:06:36.529Z,101465.75
2023-02-16T23:13:38.272Z,101455.25
2023-02-16T23:20:39.820Z,101451.66
2023-02-16T23:27:41.375Z,101452.63
2023-02-16T23:34:44.022Z,101448.56
2023-02-16T23:41:45.602Z,101453.88
2023-02-16T23:48:47.141Z,101451.31
2023-02-16T23:56:04.778Z,101450.88
